createdAt,value
2019-06-01T00:01:00.161Z,92.90
2019-06-01T00:03:48.647Z,93.10
2019-06-01T00:06:36.536Z,92.60
2019-06-01T00:09:25.167Z,92.80
2019-06-01T00:12:13.352Z,92.70
2019-06-01T00:15:02.085Z,92.20
2019-06-01T00:17:50.359Z,92.00
2019-06-01T00:20:38.182Z,92.50
2019-06-01T00:23:26.456Z,93.10
2019-06-01T00:26:14.719Z,93.20
2019-06-01T00:29:03.165Z,92.80
2019-06-01T00:31:52.152Z,92.70
2019-06-01T00:34:41.257Z,93.00
2019-06-01T00:37:29.762Z,92.20
2019-06-01T00:40:19.252Z,92.30
2019-06-01T00:43:08.002Z,92.20
2019-06-01T00:45:56.354Z,92.50
2019-06-01T00:48:45.875Z,92.20
2019-06-01T00:51:34.219Z,92.20
2019-06-01T00:54:23.179Z,92.00
2019-06-01T00:57:11.110Z,91.80
2019-06-01T00:59:59.899Z,91.70
2019-06-01T01:02:48.122Z,92.10
2019-06-01T01:05:35.756Z,91.80
2019-06-01T01:08:23.734Z,91.80
2019-06-01T01:11:11.797Z,92.00
2019-06-01T01:14:00.155Z,92.40
2019-06-01T01:16:48.069Z,92.60
2019-06-01T01:19:36.606Z,92.50
2019-06-01T01:22:24.430Z,92.60
2019-06-01T01:25:12.754Z,93.10
2019-06-01T01:28:01.295Z,93.30
2019-06-01T01:31:03.090Z,93.80
2019-06-01T01:33:39.822Z,93.80
2019-06-01T01:36:28.429Z,93.50
2019-06-01T01:39:17.163Z,93.70
2019-06-01T01:42:04.901Z,93.50
2019-06-01T01:44:54.592Z,93.40
2019-06-01T01:47:43.211Z,93.60
2019-06-01T01:50:31.230Z,93.60
2019-06-01T01:53:18.895Z,93.80
2019-06-01T01:56:06.809Z,94.20
2019-06-01T01:58:56.410Z,94.10
2019-06-01T02:01:44.344Z,93.80
2019-06-01T02:04:32.434Z,94.20
2019-06-01T02:07:20.835Z,94.30
2019-06-01T02:10:10.725Z,95.00
2019-06-01T02:12:59.587Z,95.30
2019-06-01T02:15:47.941Z,95.20
2019-06-01T02:18:35.993Z,94.90
2019-06-01T02:21:24.153Z,95.10
2019-06-01T02:24:12.674Z,95.40
2019-06-01T02:27:01.349Z,95.60
2019-06-01T02:29:49.588Z,95.80
2019-06-01T02:32:38.020Z,95.80
2019-06-01T02:35:26.425Z,95.80
2019-06-01T02:38:15.064Z,95.60
2019-06-01T02:41:03.341Z,95.30
2019-06-01T02:43:52.366Z,95.40
2019-06-01T02:46:40.436Z,95.10
2019-06-01T02:49:29.359Z,95.20
2019-06-01T02:52:17.090Z,95.70
2019-06-01T02:55:08.865Z,95.30
2019-06-01T02:57:58.063Z,95.40
2019-06-01T03:00:49.848Z,94.70
2019-06-01T03:03:38.451Z,94.60
2019-06-01T03:06:29.302Z,94.30
2019-06-01T03:09:21.551Z,94.70
2019-06-01T03:12:12.763Z,94.30
2019-06-01T03:15:04.429Z,94.60
2019-06-01T03:17:56.446Z,94.40
2019-06-01T03:20:47.914Z,94.20
2019-06-01T03:23:37.908Z,94.30
2019-06-01T03:26:28.555Z,94.80
2019-06-01T03:29:19.698Z,94.60
2019-06-01T03:32:29.770Z,94.80
2019-06-01T03:34:58.687Z,94.70
2019-06-01T03:37:46.629Z,94.80
2019-06-01T03:40:35.167Z,94.70
2019-06-01T03:43:24.078Z,94.80
2019-06-01T03:46:13.101Z,95.40
2019-06-01T03:49:01.781Z,95.20
2019-06-01T03:51:49.531Z,95.10
2019-06-01T03:54:38.116Z,94.90
2019-06-01T03:57:26.883Z,94.80
2019-06-01T04:00:15.938Z,95.30
2019-06-01T04:03:05.013Z,95.00
2019-06-01T04:05:53.100Z,94.70
2019-06-01T04:08:42.118Z,94.40
2019-06-01T04:11:30.633Z,94.80
2019-06-01T04:14:18.614Z,94.70
2019-06-01T04:17:06.512Z,94.40
2019-06-01T04:19:54.708Z,94.40
2019-06-01T04:22:44.395Z,94.30
2019-06-01T04:25:32.754Z,93.80
2019-06-01T04:28:21.326Z,93.50
2019-06-01T04:31:10.721Z,93.10
2019-06-01T04:34:00.068Z,92.70
2019-06-01T04:36:48.280Z,92.90
2019-06-01T04:39:36.675Z,93.40
2019-06-01T04:42:24.807Z,93.60
2019-06-01T04:45:12.680Z,93.30
2019-06-01T04:48:01.208Z,93.30
2019-06-01T04:50:49.294Z,92.60
2019-06-01T04:53:38.192Z,93.00
2019-06-01T04:56:26.929Z,92.40
2019-06-01T04:59:15.450Z,92.10
2019-06-01T05:02:05.527Z,92.00
2019-06-01T05:04:53.603Z,91.30
2019-06-01T05:07:42.586Z,91.60
2019-06-01T05:10:32.006Z,91.10
2019-06-01T05:13:20.509Z,91.20
2019-06-01T05:16:08.287Z,90.70
2019-06-01T05:18:56.834Z,90.50
2019-06-01T05:21:44.810Z,90.50
2019-06-01T05:24:33.682Z,89.20
2019-06-01T05:27:22.324Z,88.80
2019-06-01T05:30:11.566Z,90.10
2019-06-01T05:33:00.312Z,87.80
2019-06-01T05:35:48.659Z,88.90
2019-06-01T05:38:36.747Z,88.20
2019-06-01T05:41:24.390Z,89.60
2019-06-01T05:44:12.885Z,89.40
2019-06-01T05:47:00.826Z,89.80
2019-06-01T05:49:49.446Z,87.30
2019-06-01T05:52:38.252Z,86.50
2019-06-01T05:55:26.718Z,86.60
2019-06-01T05:58:15.189Z,86.60
2019-06-01T06:01:03.232Z,86.40
2019-06-01T06:03:52.092Z,88.40
2019-06-01T06:06:40.317Z,84.90
2019-06-01T06:09:29.011Z,86.90
2019-06-01T06:12:17.300Z,85.80
2019-06-01T06:15:06.888Z,87.30
2019-06-01T06:17:55.042Z,87.00
2019-06-01T06:20:42.992Z,87.70
2019-06-01T06:23:31.273Z,87.70
2019-06-01T06:26:20.481Z,85.00
2019-06-01T06:29:09.602Z,85.30
2019-06-01T06:31:57.937Z,86.90
2019-06-01T06:34:46.046Z,86.40
2019-06-01T06:37:34.742Z,86.30
2019-06-01T06:40:22.863Z,85.90
2019-06-01T06:43:22.335Z,86.00
2019-06-01T06:46:01.398Z,84.40
2019-06-01T06:48:49.902Z,84.30
2019-06-01T06:51:38.230Z,84.40
2019-06-01T06:54:27.148Z,84.70
2019-06-01T06:57:15.958Z,83.50
2019-06-01T07:00:08.222Z,84.80
2019-06-01T07:02:56.056Z,83.30
2019-06-01T07:05:44.162Z,84.50
2019-06-01T07:08:32.707Z,81.80
2019-06-01T07:11:21.200Z,82.30
2019-06-01T07:14:09.800Z,80.60
2019-06-01T07:16:57.944Z,80.80
2019-06-01T07:19:46.097Z,80.90
2019-06-01T07:22:33.704Z,80.70
2019-06-01T07:25:21.872Z,79.00
2019-06-01T07:28:09.944Z,80.90
2019-06-01T07:30:57.747Z,78.00
2019-06-01T07:33:46.318Z,77.10
2019-06-01T07:36:34.350Z,75.20
2019-06-01T07:39:23.019Z,75.30
2019-06-01T07:42:10.568Z,76.40
2019-06-01T07:44:59.330Z,73.80
2019-06-01T07:47:47.535Z,73.40
2019-06-01T07:50:35.520Z,73.50
2019-06-01T07:53:24.066Z,72.10
2019-06-01T07:56:13.793Z,75.20
2019-06-01T07:59:02.690Z,72.00
2019-06-01T08:01:50.974Z,68.20
2019-06-01T08:04:52.531Z,69.20
2019-06-01T08:07:29.266Z,71.00
2019-06-01T08:10:16.968Z,73.30
2019-06-01T08:13:04.743Z,70.10
2019-06-01T08:15:52.609Z,68.10
2019-06-01T08:18:40.459Z,67.20
2019-06-01T08:21:28.596Z,68.60
2019-06-01T08:24:17.375Z,68.30
2019-06-01T08:27:05.126Z,67.40
2019-06-01T08:29:53.677Z,67.40
2019-06-01T08:32:42.102Z,69.00
2019-06-01T08:35:31.210Z,70.30
2019-06-01T08:38:19.370Z,69.80
2019-06-01T08:41:07.813Z,66.80
2019-06-01T08:43:56.430Z,65.40
2019-06-01T08:46:44.638Z,64.00
2019-06-01T08:49:34.353Z,63.20
2019-06-01T08:52:23.889Z,61.00
2019-06-01T08:55:11.847Z,62.40
2019-06-01T08:57:59.795Z,62.60
2019-06-01T09:00:47.941Z,61.60
2019-06-01T09:03:43.632Z,59.60
2019-06-01T09:06:26.724Z,61.60
2019-06-01T09:09:14.764Z,59.90
2019-06-01T09:12:02.891Z,61.30
2019-06-01T09:14:50.719Z,60.80
2019-06-01T09:17:38.899Z,60.70
2019-06-01T09:20:27.445Z,60.30
2019-06-01T09:23:15.846Z,59.20
2019-06-01T09:26:04.242Z,59.90
2019-06-01T09:28:52.255Z,56.70
2019-06-01T09:31:40.336Z,57.70
2019-06-01T09:34:28.454Z,57.80
2019-06-01T09:37:17.155Z,58.50
2019-06-01T09:40:07.099Z,58.40
2019-06-01T09:42:54.911Z,60.90
2019-06-01T09:45:43.062Z,61.40
2019-06-01T09:48:31.432Z,63.10
2019-06-01T09:51:19.719Z,57.10
2019-06-01T09:54:07.984Z,60.50
2019-06-01T09:56:56.666Z,60.30
2019-06-01T09:59:44.428Z,58.60
2019-06-01T10:02:32.220Z,58.20
2019-06-01T10:05:19.943Z,57.20
2019-06-01T10:08:07.930Z,56.90
2019-06-01T10:10:56.387Z,57.30
2019-06-01T10:13:45.099Z,58.00
2019-06-01T10:16:34.529Z,57.70
2019-06-01T10:19:23.295Z,54.50
2019-06-01T10:22:11.539Z,54.60
2019-06-01T10:24:59.779Z,54.40
2019-06-01T10:27:48.399Z,56.50
2019-06-01T10:30:37.935Z,55.70
2019-06-01T10:33:26.254Z,53.80
2019-06-01T10:36:20.644Z,53.30
2019-06-01T10:39:05.842Z,55.80
2019-06-01T10:41:54.167Z,54.70
2019-06-01T10:44:45.715Z,55.00
2019-06-01T10:47:31.857Z,56.70
2019-06-01T10:50:20.064Z,54.20
2019-06-01T10:53:08.326Z,53.70
2019-06-01T10:55:57.070Z,52.60
2019-06-01T10:58:59.181Z,56.70
2019-06-01T11:01:36.291Z,54.30
2019-06-01T11:04:24.839Z,54.80
2019-06-01T11:07:13.172Z,53.90
2019-06-01T11:10:01.326Z,56.70
2019-06-01T11:12:49.219Z,54.40
2019-06-01T11:15:36.979Z,53.40
2019-06-01T11:18:24.510Z,52.80
2019-06-01T11:21:12.690Z,52.80
2019-06-01T11:24:01.008Z,52.30
2019-06-01T11:26:48.551Z,50.80
2019-06-01T11:29:42.880Z,51.30
2019-06-01T11:32:26.473Z,51.80
2019-06-01T11:35:15.228Z,55.40
2019-06-01T11:38:03.589Z,52.20
2019-06-01T11:40:51.655Z,53.10
2019-06-01T11:43:40.630Z,52.30
2019-06-01T11:46:28.660Z,53.80
2019-06-01T11:49:20.358Z,51.60
2019-06-01T11:52:05.854Z,53.10
2019-06-01T11:54:53.678Z,52.30
2019-06-01T11:57:41.785Z,50.60
2019-06-01T12:00:29.584Z,48.90
2019-06-01T12:03:17.342Z,49.60
2019-06-01T12:06:05.512Z,52.40
2019-06-01T12:08:53.795Z,51.00
2019-06-01T12:11:42.161Z,52.30
2019-06-01T12:14:30.674Z,51.00
2019-06-01T12:17:19.074Z,50.70
2019-06-01T12:20:08.262Z,52.50
2019-06-01T12:22:56.106Z,53.10
2019-06-01T12:25:44.362Z,52.20
2019-06-01T12:28:32.879Z,51.60
2019-06-01T12:31:20.716Z,52.20
2019-06-01T12:34:08.680Z,52.70
2019-06-01T12:36:57.051Z,51.80
2019-06-01T12:39:50.352Z,52.50
2019-06-01T12:42:35.303Z,53.40
2019-06-01T12:45:23.659Z,55.80
2019-06-01T12:48:12.142Z,52.20
2019-06-01T12:51:00.394Z,52.30
2019-06-01T12:53:48.633Z,52.60
2019-06-01T12:56:36.951Z,52.50
2019-06-01T12:59:25.115Z,52.90
2019-06-01T13:02:12.686Z,52.50
2019-06-01T13:05:00.311Z,53.30
2019-06-01T13:07:58.547Z,55.80
2019-06-01T13:10:37.891Z,53.20
2019-06-01T13:13:25.792Z,51.80
2019-06-01T13:16:14.101Z,51.80
2019-06-01T13:19:02.511Z,53.00
2019-06-01T13:21:51.721Z,49.60
2019-06-01T13:24:41.485Z,51.00
2019-06-01T13:27:30.099Z,52.80
2019-06-01T13:30:19.874Z,55.00
2019-06-01T13:33:08.483Z,56.00
2019-06-01T13:35:57.320Z,51.80
2019-06-01T13:38:46.606Z,52.10
2019-06-01T13:41:34.974Z,54.90
2019-06-01T13:44:23.577Z,49.70
2019-06-01T13:47:11.565Z,50.80
2019-06-01T13:49:59.970Z,49.10
2019-06-01T13:52:48.084Z,49.30
2019-06-01T13:55:36.754Z,49.30
2019-06-01T13:58:24.889Z,50.70
2019-06-01T14:01:13.386Z,51.60
2019-06-01T14:04:01.710Z,51.60
2019-06-01T14:06:51.061Z,50.30
2019-06-01T14:09:38.867Z,51.70
2019-06-01T14:12:26.967Z,52.30
2019-06-01T14:15:15.511Z,52.00
2019-06-01T14:18:03.611Z,54.00
2019-06-01T14:20:51.750Z,49.90
2019-06-01T14:23:40.071Z,51.60
2019-06-01T14:26:28.316Z,50.10
2019-06-01T14:29:16.922Z,48.20
2019-06-01T14:32:05.768Z,47.30
2019-06-01T14:34:54.802Z,46.40
2019-06-01T14:37:43.456Z,49.90
2019-06-01T14:40:31.785Z,46.70
2019-06-01T14:43:20.144Z,46.60
2019-06-01T14:46:08.706Z,48.90
2019-06-01T14:48:57.750Z,48.70
2019-06-01T14:51:47.380Z,50.20
2019-06-01T14:54:35.839Z,48.70
2019-06-01T14:57:24.296Z,46.10
2019-06-01T15:00:14.378Z,47.30
2019-06-01T15:03:02.848Z,47.70
2019-06-01T15:05:52.030Z,49.50
2019-06-01T15:08:40.327Z,49.00
2019-06-01T15:11:27.972Z,50.00
2019-06-01T15:14:15.909Z,51.00
2019-06-01T15:17:04.857Z,49.80
2019-06-01T15:19:54.125Z,51.40
2019-06-01T15:22:42.324Z,50.40
2019-06-01T15:25:30.658Z,55.40
2019-06-01T15:28:18.542Z,52.00
2019-06-01T15:31:06.400Z,51.00
2019-06-01T15:33:55.222Z,51.50
2019-06-01T15:36:43.945Z,49.70
2019-06-01T15:39:32.059Z,51.60
2019-06-01T15:42:20.547Z,51.50
2019-06-01T15:45:09.331Z,51.80
2019-06-01T15:47:57.780Z,50.70
2019-06-01T15:50:45.928Z,50.90
2019-06-01T15:53:34.284Z,50.50
2019-06-01T15:56:23.721Z,49.60
2019-06-01T15:59:11.934Z,47.60
2019-06-01T16:02:01.207Z,47.60
2019-06-01T16:04:49.320Z,46.80
2019-06-01T16:07:37.147Z,46.00
2019-06-01T16:10:25.243Z,45.10
2019-06-01T16:13:13.631Z,46.40
2019-06-01T16:16:03.525Z,46.10
2019-06-01T16:18:50.932Z,48.50
2019-06-01T16:21:39.082Z,50.90
2019-06-01T16:24:27.208Z,51.80
2019-06-01T16:27:15.326Z,52.80
2019-06-01T16:30:08.126Z,50.00
2019-06-01T16:32:56.498Z,53.50
2019-06-01T16:35:45.918Z,55.40
2019-06-01T16:38:33.963Z,50.60
2019-06-01T16:41:22.012Z,51.60
2019-06-01T16:44:09.979Z,51.40
2019-06-01T16:46:58.134Z,53.40
2019-06-01T16:49:46.635Z,57.40
2019-06-01T16:52:34.724Z,57.20
2019-06-01T16:55:22.967Z,56.70
2019-06-01T16:58:10.757Z,60.60
2019-06-01T17:00:58.815Z,56.80
2019-06-01T17:03:46.706Z,56.20
2019-06-01T17:06:36.910Z,54.20
2019-06-01T17:09:24.346Z,55.50
2019-06-01T17:12:12.350Z,55.50
2019-06-01T17:15:00.972Z,55.70
2019-06-01T17:17:54.608Z,53.60
2019-06-01T17:20:47.242Z,52.00
2019-06-01T17:23:35.310Z,53.90
2019-06-01T17:26:23.579Z,53.10
2019-06-01T17:29:11.477Z,52.50
2019-06-01T17:32:13.443Z,54.50
2019-06-01T17:34:49.111Z,51.80
2019-06-01T17:37:36.812Z,53.10
2019-06-01T17:40:36.666Z,54.40
2019-06-01T17:43:15.133Z,54.00
2019-06-01T17:46:03.227Z,54.80
2019-06-01T17:48:51.725Z,55.30
2019-06-01T17:51:39.823Z,55.20
2019-06-01T17:54:28.286Z,55.50
2019-06-01T17:57:16.634Z,55.90
2019-06-01T18:00:07.771Z,56.90
2019-06-01T18:02:57.126Z,58.30
2019-06-01T18:05:45.613Z,59.10
2019-06-01T18:08:33.684Z,60.20
2019-06-01T18:11:21.854Z,59.60
2019-06-01T18:14:10.586Z,61.90
2019-06-01T18:16:58.274Z,62.00
2019-06-01T18:19:46.423Z,62.90
2019-06-01T18:22:34.396Z,66.20
2019-06-01T18:25:24.817Z,64.30
2019-06-01T18:28:19.049Z,63.10
2019-06-01T18:31:02.731Z,64.60
2019-06-01T18:33:53.385Z,67.20
2019-06-01T18:36:39.710Z,69.70
2019-06-01T18:39:27.532Z,73.40
2019-06-01T18:42:18.737Z,74.90
2019-06-01T18:45:07.875Z,73.20
2019-06-01T18:47:56.162Z,72.60
2019-06-01T18:50:44.080Z,77.60
2019-06-01T18:53:32.171Z,80.10
2019-06-01T18:56:20.868Z,81.90
2019-06-01T18:59:10.224Z,83.00
2019-06-01T19:01:58.862Z,82.90
2019-06-01T19:04:46.706Z,83.20
2019-06-01T19:07:34.963Z,85.60
2019-06-01T19:10:24.560Z,86.10
2019-06-01T19:13:13.969Z,86.90
2019-06-01T19:16:03.383Z,86.30
2019-06-01T19:18:52.602Z,85.80
2019-06-01T19:21:40.918Z,87.90
2019-06-01T19:24:29.399Z,89.00
2019-06-01T19:27:20.232Z,88.90
2019-06-01T19:30:09.005Z,87.90
2019-06-01T19:32:58.703Z,87.70
2019-06-01T19:35:47.073Z,88.80
2019-06-01T19:38:36.142Z,88.80
2019-06-01T19:41:24.767Z,88.80
2019-06-01T19:44:13.668Z,89.00
2019-06-01T19:47:03.631Z,90.00
2019-06-01T19:49:53.276Z,90.20
2019-06-01T19:52:42.515Z,90.10
2019-06-01T19:55:30.905Z,90.00
2019-06-01T19:58:19.322Z,89.50
2019-06-01T20:01:07.115Z,89.40
2019-06-01T20:03:55.691Z,88.20
2019-06-01T20:06:45.632Z,87.50
2019-06-01T20:09:33.879Z,87.10
2019-06-01T20:12:22.548Z,88.30
2019-06-01T20:15:11.296Z,89.20
2019-06-01T20:17:59.912Z,90.30
2019-06-01T20:20:48.423Z,89.00
2019-06-01T20:23:38.739Z,88.50
2019-06-01T20:26:40.460Z,88.60
2019-06-01T20:29:17.672Z,88.20
2019-06-01T20:32:05.851Z,90.10
2019-06-01T20:34:53.931Z,90.40
2019-06-01T20:37:41.883Z,90.60
2019-06-01T20:40:30.915Z,91.00
2019-06-01T20:43:19.004Z,91.00
2019-06-01T20:46:07.155Z,90.90
2019-06-01T20:48:55.279Z,90.80
2019-06-01T20:51:44.907Z,91.00
2019-06-01T20:54:36.010Z,91.10
2019-06-01T20:57:25.351Z,91.70
2019-06-01T21:00:16.034Z,91.80
2019-06-01T21:03:05.639Z,91.80
2019-06-01T21:05:53.790Z,91.40
2019-06-01T21:08:41.984Z,91.80
2019-06-01T21:11:30.637Z,92.40
2019-06-01T21:14:19.203Z,93.00
2019-06-01T21:17:07.248Z,92.90
2019-06-01T21:19:55.404Z,93.00
2019-06-01T21:22:43.795Z,93.10
2019-06-01T21:25:32.012Z,93.00
2019-06-01T21:28:22.071Z,93.20
2019-06-01T21:31:09.601Z,92.90
2019-06-01T21:33:58.706Z,92.90
2019-06-01T21:36:47.248Z,93.20
2019-06-01T21:39:36.250Z,93.50
2019-06-01T21:42:25.994Z,93.60
2019-06-01T21:45:15.792Z,93.90
2019-06-01T21:48:03.517Z,93.20
2019-06-01T21:50:51.222Z,92.70
2019-06-01T21:53:39.495Z,92.80
2019-06-01T21:56:29.191Z,92.60
2019-06-01T21:59:18.520Z,92.50
2019-06-01T22:02:07.958Z,92.50
2019-06-01T22:04:56.945Z,92.60
2019-06-01T22:07:44.984Z,92.80
2019-06-01T22:10:32.959Z,92.10
2019-06-01T22:13:23.777Z,91.80
2019-06-01T22:16:10.077Z,92.30
2019-06-01T22:18:58.514Z,92.10
2019-06-01T22:21:46.836Z,91.80
2019-06-01T22:24:35.009Z,91.40
2019-06-01T22:27:24.193Z,91.40
2019-06-01T22:30:13.028Z,91.40
2019-06-01T22:33:01.896Z,91.80
2019-06-01T22:35:49.958Z,92.10
2019-06-01T22:38:38.257Z,92.10
2019-06-01T22:41:26.238Z,91.90
2019-06-01T22:44:14.701Z,91.90
2019-06-01T22:47:03.369Z,92.40
2019-06-01T22:49:51.932Z,92.40
2019-06-01T22:52:40.511Z,92.50
2019-06-01T22:55:28.914Z,92.10
2019-06-01T22:58:17.956Z,92.20
2019-06-01T23:01:06.529Z,92.00
2019-06-01T23:03:54.831Z,92.80
2019-06-01T23:06:44.257Z,93.00
2019-06-01T23:09:35.599Z,91.90
2019-06-01T23:12:23.810Z,92.80
2019-06-01T23:15:12.031Z,92.90
2019-06-01T23:18:00.732Z,92.00
2019-06-01T23:20:50.300Z,92.10
2019-06-01T23:23:39.061Z,92.40
2019-06-01T23:26:27.997Z,92.40
2019-06-01T23:29:18.515Z,93.50
2019-06-01T23:32:06.778Z,93.70
2019-06-01T23:34:55.885Z,93.40
2019-06-01T23:37:43.667Z,93.50
2019-06-01T23:40:33.374Z,93.60
2019-06-01T23:43:22.688Z,94.50
2019-06-01T23:46:13.020Z,94.90
2019-06-01T23:49:02.152Z,95.00
2019-06-01T23:51:53.436Z,95.00
2019-06-01T23:54:43.583Z,94.80
2019-06-01T23:57:32.101Z,94.20
